Time;durP1;ratioP1;P1;durP2;ratioP2;P2;SDS_P1;SDS_P2;PMS_P1;PMS_P2;Temp;Humidity;BMP_temperature;BMP_pressure;BME280_temperature;BME280_humidity;BME280_pressure;Samples;Min_cycle;Max_cycle;Signal;HPM_P1;HPM_P2
2021/09/02 00:01:42;;;;;;;42.72;14.25;;;15.70;99.90;;;;;;5017986;28;20048;-83
2021/09/02 00:04:07;;;;;;;32.63;12.43;;;15.60;99.90;;;;;;5023379;28;20076;-84
2021/09/02 00:06:33;;;;;;;41.50;12.73;;;15.70;99.90;;;;;;5021156;28;20488;-84
2021/09/02 00:08:58;;;;;;;35.22;11.38;;;15.70;99.90;;;;;;5028076;28;20394;-83
2021/09/02 00:12:04;;;;;;;40.53;11.77;;;15.60;99.90;;;;;;5019665;28;20033;-82
2021/09/02 00:14:30;;;;;;;41.08;11.77;;;15.70;99.90;;;;;;5007644;28;20026;-83
2021/09/02 00:16:56;;;;;;;39.65;11.27;;;15.70;99.90;;;;;;5024550;28;20029;-83
2021/09/02 00:19:22;;;;;;;45.78;12.65;;;15.70;99.90;;;;;;5012490;28;20174;-83
2021/09/02 00:21:47;;;;;;;34.10;11.20;;;15.60;99.90;;;;;;5009691;28;20022;-82
2021/09/02 00:24:13;;;;;;;33.55;11.40;;;15.60;99.90;;;;;;5019469;28;20025;-83
2021/09/02 00:26:42;;;;;;;34.40;11.80;;;15.50;99.90;;;;;;5022284;28;20037;-84
2021/09/02 00:29:07;;;;;;;38.53;11.57;;;15.50;99.90;;;;;;5013026;28;20056;-83
2021/09/02 00:31:33;;;;;;;42.17;12.55;;;15.50;99.90;;;;;;5018749;28;20030;-83
2021/09/02 00:33:58;;;;;;;39.22;11.50;;;15.50;99.90;;;;;;5026742;28;20030;-83
2021/09/02 00:36:24;;;;;;;51.38;12.23;;;15.50;99.90;;;;;;5015384;28;20071;-83
2021/09/02 00:38:49;;;;;;;41.72;11.73;;;15.50;99.90;;;;;;5015660;28;20030;-84
2021/09/02 00:41:15;;;;;;;34.38;11.35;;;15.50;99.90;;;;;;5015126;28;20026;-84
2021/09/02 00:43:42;;;;;;;32.97;10.98;;;15.40;99.90;;;;;;5026708;28;20026;-83
2021/09/02 00:46:15;;;;;;;36.33;11.55;;;15.40;99.90;;;;;;5010529;28;20390;-83
2021/09/02 00:48:42;;;;;;;31.55;11.07;;;15.40;99.90;;;;;;5011597;28;20695;-83
2021/09/02 00:51:08;;;;;;;47.47;11.25;;;15.40;99.90;;;;;;5019145;28;20478;-83
2021/09/02 00:53:34;;;;;;;41.88;10.63;;;15.30;99.90;;;;;;5003750;28;20029;-83
2021/09/02 00:56:00;;;;;;;33.40;10.55;;;15.30;99.90;;;;;;5011158;28;20080;-83
2021/09/02 00:58:26;;;;;;;35.92;12.45;;;15.30;99.90;;;;;;5011331;28;20109;-83
2021/09/02 01:00:51;;;;;;;29.23;9.95;;;15.30;99.90;;;;;;5010705;28;20064;-84
2021/09/02 01:03:18;;;;;;;35.38;10.30;;;15.30;99.90;;;;;;5031126;28;20030;-83
2021/09/02 01:05:45;;;;;;;35.35;10.30;;;15.20;99.90;;;;;;5031095;28;20051;-82
2021/09/02 01:08:15;;;;;;;32.45;10.30;;;15.30;99.90;;;;;;5016885;28;20026;-84
2021/09/02 01:10:41;;;;;;;37.40;9.73;;;15.20;99.90;;;;;;5016487;28;20021;-83
2021/09/02 01:13:07;;;;;;;34.92;10.68;;;15.30;99.90;;;;;;5017204;28;20036;-83
2021/09/02 01:15:32;;;;;;;32.17;10.05;;;15.30;99.90;;;;;;5034421;28;20033;-83
2021/09/02 01:17:59;;;;;;;35.67;8.73;;;15.20;99.90;;;;;;5016736;28;20041;-83
2021/09/02 01:20:28;;;;;;;31.48;9.15;;;15.20;99.90;;;;;;5034363;28;20030;-82
2021/09/02 01:22:57;;;;;;;37.28;10.30;;;15.30;99.90;;;;;;5034364;28;20064;-83
2021/09/02 01:25:26;;;;;;;29.50;9.52;;;15.30;99.90;;;;;;5016398;28;20414;-82
2021/09/02 01:27:54;;;;;;;23.95;7.82;;;15.20;99.90;;;;;;5034317;28;20091;-83
2021/09/02 01:30:20;;;;;;;29.67;8.48;;;15.30;99.90;;;;;;5034193;28;20025;-83
2021/09/02 01:32:47;;;;;;;26.48;8.73;;;15.30;99.90;;;;;;5016297;28;20037;-83
2021/09/02 01:35:15;;;;;;;24.70;8.73;;;15.40;99.90;;;;;;5016293;28;20522;-83
2021/09/02 01:37:43;;;;;;;28.80;8.45;;;15.30;99.90;;;;;;5016361;28;20470;-83
2021/09/02 01:40:18;;;;;;;39.85;8.38;;;15.30;99.90;;;;;;5016524;28;20079;-82
2021/09/02 01:42:44;;;;;;;28.30;8.25;;;15.20;99.90;;;;;;4996834;28;20109;-83
2021/09/02 01:45:11;;;;;;;30.40;9.07;;;15.30;99.90;;;;;;5014144;28;20030;-83
2021/09/02 01:47:37;;;;;;;29.45;9.95;;;15.20;99.90;;;;;;4996675;28;20112;-83
2021/09/02 01:50:21;;;;;;;33.78;8.45;;;15.10;99.90;;;;;;4996682;28;20061;-83
2021/09/02 01:52:49;;;;;;;25.88;8.60;;;15.20;99.90;;;;;;5032243;28;20029;-83
2021/09/02 01:55:15;;;;;;;30.67;9.50;;;15.20;99.90;;;;;;5015933;28;20057;-83
2021/09/02 01:57:41;;;;;;;29.00;9.63;;;15.10;99.90;;;;;;5033894;28;20025;-83
2021/09/02 02:00:11;;;;;;;36.28;9.13;;;15.20;99.90;;;;;;5016137;28;20022;-82
2021/09/02 02:02:37;;;;;;;34.25;9.23;;;15.20;99.90;;;;;;5033229;28;20117;-84
2021/09/02 02:05:03;;;;;;;24.58;8.25;;;15.20;99.90;;;;;;5033786;28;20069;-83
2021/09/02 02:07:28;;;;;;;38.55;11.30;;;15.10;99.90;;;;;;5015985;28;20032;-83
2021/09/02 02:09:54;;;;;;;25.75;9.20;;;15.10;99.90;;;;;;5033735;28;20431;-83
2021/09/02 02:12:20;;;;;;;27.17;8.55;;;15.20;99.90;;;;;;5015638;28;20033;-83
2021/09/02 02:14:46;;;;;;;35.85;9.95;;;15.10;99.90;;;;;;5015506;28;20030;-82
2021/09/02 02:17:11;;;;;;;34.85;9.30;;;15.10;99.90;;;;;;5033053;28;20068;-83
2021/09/02 02:19:37;;;;;;;25.95;8.95;;;15.10;99.90;;;;;;5015406;28;20025;-83
2021/09/02 02:22:04;;;;;;;33.58;9.55;;;15.10;99.90;;;;;;5015533;28;20029;-82
2021/09/02 02:24:29;;;;;;;29.35;8.38;;;15.10;99.90;;;;;;5033179;28;20025;-83
2021/09/02 02:26:55;;;;;;;25.00;9.32;;;15.10;99.90;;;;;;5015500;28;20035;-83
2021/09/02 02:29:21;;;;;;;29.02;9.90;;;15.20;99.90;;;;;;5033312;28;20500;-83
2021/09/02 02:31:46;;;;;;;45.75;10.55;;;15.10;99.90;;;;;;5015498;28;20029;-83
2021/09/02 02:34:12;;;;;;;29.35;10.05;;;15.10;99.90;;;;;;5014960;28;20039;-83
2021/09/02 02:36:38;;;;;;;24.98;8.10;;;15.10;99.90;;;;;;5015384;28;20021;-82
2021/09/02 02:39:04;;;;;;;24.90;8.73;;;15.20;99.90;;;;;;5015388;28;20044;-82
2021/09/02 02:41:30;;;;;;;25.02;8.77;;;15.10;99.90;;;;;;5033121;28;20053;-82
2021/09/02 02:43:55;;;;;;;25.38;9.45;;;15.20;99.90;;;;;;5014846;28;20034;-83
2021/09/02 02:46:21;;;;;;;39.33;10.60;;;15.30;99.90;;;;;;5032771;28;20029;-83
2021/09/02 02:48:47;;;;;;;25.23;9.30;;;15.00;99.90;;;;;;5032930;28;20032;-82
2021/09/02 02:51:13;;;;;;;26.85;8.85;;;15.00;99.90;;;;;;5015136;28;20124;-83
2021/09/02 02:53:39;;;;;;;42.90;12.15;;;15.00;99.90;;;;;;5032232;28;20079;-82
2021/09/02 02:56:05;;;;;;;29.40;10.20;;;15.20;99.90;;;;;;5032708;28;20029;-83
2021/09/02 02:58:30;;;;;;;33.63;10.35;;;15.10;99.90;;;;;;5032747;28;20026;-83
2021/09/02 03:00:56;;;;;;;28.90;9.82;;;15.00;99.90;;;;;;5032721;28;20032;-82
2021/09/02 03:03:21;;;;;;;31.33;10.75;;;15.10;99.90;;;;;;5032308;28;20049;-83
2021/09/02 03:05:47;;;;;;;32.45;11.40;;;15.00;99.90;;;;;;5014784;28;20025;-84
2021/09/02 03:08:12;;;;;;;33.42;10.60;;;14.90;99.90;;;;;;5015031;28;20068;-83
2021/09/02 03:10:38;;;;;;;39.70;9.82;;;14.90;99.90;;;;;;5014992;28;20033;-82
2021/09/02 03:13:04;;;;;;;34.67;10.85;;;14.90;99.90;;;;;;5014795;28;20478;-82
2021/09/02 03:15:30;;;;;;;34.03;10.38;;;14.90;99.90;;;;;;5014297;28;20078;-83
2021/09/02 03:17:57;;;;;;;34.80;10.52;;;15.00;99.90;;;;;;5014626;28;20040;-83
2021/09/02 03:20:22;;;;;;;27.17;10.35;;;14.90;99.90;;;;;;5014703;28;20025;-82
2021/09/02 03:22:48;;;;;;;31.92;11.23;;;14.90;99.90;;;;;;5014660;28;20040;-83
2021/09/02 03:25:13;;;;;;;35.83;10.48;;;14.90;99.90;;;;;;5031712;28;20494;-83
2021/09/02 03:27:40;;;;;;;31.42;11.00;;;14.90;99.90;;;;;;5013961;28;20048;-82
2021/09/02 03:30:07;;;;;;;27.48;10.35;;;14.90;99.90;;;;;;5032141;28;20041;-83
2021/09/02 03:32:32;;;;;;;42.42;12.45;;;14.90;99.90;;;;;;5032147;28;20052;-83
2021/09/02 03:34:58;;;;;;;26.23;10.32;;;14.80;99.90;;;;;;5013863;28;20057;-83
2021/09/02 03:37:23;;;;;;;32.13;11.27;;;15.00;99.90;;;;;;5032045;28;20083;-82
2021/09/02 03:39:49;;;;;;;26.73;9.77;;;14.90;99.90;;;;;;5014352;28;20021;-82
2021/09/02 03:42:15;;;;;;;28.75;10.90;;;14.90;99.90;;;;;;5032087;28;20023;-82
2021/09/02 03:44:41;;;;;;;29.17;10.07;;;14.90;99.90;;;;;;5031499;28;20055;-82
2021/09/02 03:47:06;;;;;;;37.20;9.82;;;14.90;99.90;;;;;;5031839;28;20029;-82
2021/09/02 03:49:32;;;;;;;26.90;9.95;;;14.90;99.90;;;;;;5014477;28;20489;-82
2021/09/02 03:51:57;;;;;;;33.25;10.70;;;14.90;99.90;;;;;;5014316;28;20025;-82
2021/09/02 03:54:23;;;;;;;22.92;9.90;;;14.90;99.90;;;;;;5031588;28;20040;-82
2021/09/02 03:56:48;;;;;;;39.33;10.90;;;14.80;99.90;;;;;;5013317;28;20489;-82
2021/09/02 03:59:14;;;;;;;31.38;10.20;;;14.80;99.90;;;;;;5013948;28;20405;-82
2021/09/02 04:01:40;;;;;;;33.03;11.65;;;14.90;99.90;;;;;;5014078;28;20390;-83
2021/09/02 04:04:05;;;;;;;27.73;10.18;;;14.80;99.90;;;;;;5013885;28;20034;-82
2021/09/02 04:06:31;;;;;;;22.88;10.32;;;14.90;99.90;;;;;;5013661;28;20037;-83
2021/09/02 04:08:56;;;;;;;36.88;11.43;;;14.90;99.90;;;;;;5031701;28;20108;-82
2021/09/02 04:11:22;;;;;;;29.23;10.77;;;14.80;99.90;;;;;;5014086;28;20079;-82
2021/09/02 04:13:47;;;;;;;22.45;11.55;;;14.80;99.90;;;;;;5013714;28;20474;-83
2021/09/02 04:16:13;;;;;;;24.60;11.55;;;14.90;99.90;;;;;;5013649;28;20125;-82
2021/09/02 04:18:38;;;;;;;35.55;12.52;;;14.90;99.90;;;;;;5013787;28;20049;-83
2021/09/02 04:21:04;;;;;;;34.63;11.93;;;14.80;99.90;;;;;;5013964;28;20032;-83
2021/09/02 04:23:32;;;;;;;26.83;9.73;;;14.80;99.90;;;;;;5013871;28;20060;-82
2021/09/02 04:25:58;;;;;;;26.85;11.55;;;14.80;99.90;;;;;;5031077;28;20026;-83
2021/09/02 04:28:24;;;;;;;38.85;12.75;;;14.80;99.90;;;;;;5013764;28;20029;-83
2021/09/02 04:30:49;;;;;;;29.23;11.70;;;14.80;99.90;;;;;;5013813;28;20448;-82
2021/09/02 04:33:15;;;;;;;34.10;11.52;;;14.80;99.90;;;;;;5031561;28;20022;-82
2021/09/02 04:35:40;;;;;;;32.08;12.18;;;14.70;99.90;;;;;;5031189;28;20028;-82
2021/09/02 04:38:06;;;;;;;28.55;10.90;;;14.70;99.90;;;;;;5031268;28;20036;-82
2021/09/02 04:40:32;;;;;;;32.60;11.55;;;14.70;99.90;;;;;;5013773;28;20029;-82
2021/09/02 04:42:57;;;;;;;31.73;12.18;;;14.80;99.90;;;;;;5017562;28;20489;-82
2021/09/02 04:45:23;;;;;;;38.15;12.40;;;14.70;99.90;;;;;;5035038;28;20512;-83
2021/09/02 04:47:50;;;;;;;45.67;12.73;;;14.70;99.90;;;;;;5016947;28;20041;-83
2021/09/02 04:50:16;;;;;;;44.67;12.85;;;14.70;99.90;;;;;;5035214;28;20108;-82
2021/09/02 04:52:42;;;;;;;50.65;12.50;;;14.70;99.90;;;;;;5035136;28;20048;-83
2021/09/02 04:55:10;;;;;;;27.50;10.15;;;14.80;99.90;;;;;;5034845;28;20588;-83
2021/09/02 04:57:36;;;;;;;32.90;10.77;;;14.70;99.90;;;;;;5016945;28;20032;-82
2021/09/02 05:00:03;;;;;;;23.70;10.15;;;14.70;99.90;;;;;;5017202;28;20026;-83
2021/09/02 05:02:28;;;;;;;24.70;9.60;;;14.70;99.90;;;;;;5034858;28;20026;-82
2021/09/02 05:04:54;;;;;;;27.00;11.38;;;14.60;99.90;;;;;;5034720;28;20021;-82
2021/09/02 05:07:19;;;;;;;31.38;10.88;;;14.70;99.90;;;;;;5034657;28;20052;-82
2021/09/02 05:09:45;;;;;;;24.85;9.50;;;14.70;99.90;;;;;;5017213;28;20114;-83
2021/09/02 05:12:10;;;;;;;27.73;11.02;;;14.80;99.90;;;;;;5034808;28;20029;-82
2021/09/02 05:14:36;;;;;;;23.95;10.02;;;14.80;99.90;;;;;;5016754;28;20429;-81
2021/09/02 05:17:01;;;;;;;27.85;10.48;;;14.80;99.90;;;;;;5034563;28;20567;-82
2021/09/02 05:19:27;;;;;;;49.88;12.40;;;14.80;99.90;;;;;;5016950;28;20474;-82
2021/09/02 05:21:53;;;;;;;29.33;9.93;;;14.80;99.90;;;;;;5016905;28;20112;-82
2021/09/02 05:24:18;;;;;;;27.88;10.13;;;14.80;99.90;;;;;;5034426;28;20025;-83
2021/09/02 05:26:44;;;;;;;36.10;10.85;;;14.90;99.90;;;;;;5034375;28;20033;-83
2021/09/02 05:29:09;;;;;;;21.08;9.55;;;14.90;99.90;;;;;;5034167;28;20041;-83
2021/09/02 05:31:35;;;;;;;29.23;9.32;;;15.00;99.90;;;;;;5034456;28;20025;-83
2021/09/02 05:34:00;;;;;;;33.88;10.20;;;14.90;99.90;;;;;;5034350;28;20104;-82
2021/09/02 05:36:26;;;;;;;30.70;10.95;;;14.90;99.90;;;;;;5034279;28;20072;-83
2021/09/02 05:38:51;;;;;;;23.80;9.55;;;14.90;99.90;;;;;;5016320;28;20029;-83
2021/09/02 05:41:17;;;;;;;39.70;10.45;;;14.80;99.90;;;;;;5016602;28;20049;-82
2021/09/02 05:43:42;;;;;;;24.55;9.27;;;14.80;99.90;;;;;;5016243;28;20018;-82
2021/09/02 05:46:08;;;;;;;27.83;11.18;;;14.90;99.90;;;;;;5034401;28;20083;-82
2021/09/02 05:48:34;;;;;;;24.90;10.50;;;15.00;99.90;;;;;;5033918;28;20076;-82
2021/09/02 05:50:59;;;;;;;23.27;9.20;;;15.00;99.90;;;;;;5034080;28;20433;-82
2021/09/02 05:53:25;;;;;;;22.08;10.02;;;15.00;99.90;;;;;;5032785;28;20025;-82
2021/09/02 05:55:50;;;;;;;27.52;9.63;;;15.10;99.90;;;;;;5015996;28;20026;-83
2021/09/02 05:58:22;;;;;;;26.55;9.80;;;15.10;99.90;;;;;;5033850;28;20022;-82
2021/09/02 06:00:48;;;;;;;30.75;9.77;;;15.10;99.90;;;;;;5013986;28;20029;-83
2021/09/02 06:03:14;;;;;;;30.50;10.57;;;15.20;99.90;;;;;;5015349;28;20551;-82
2021/09/02 06:05:39;;;;;;;25.83;9.90;;;15.20;99.90;;;;;;5015551;28;20029;-82
2021/09/02 06:08:05;;;;;;;36.50;9.38;;;15.20;99.90;;;;;;5015833;28;20032;-82
2021/09/02 06:10:32;;;;;;;25.58;8.90;;;15.20;99.90;;;;;;5033530;28;20371;-82
2021/09/02 06:12:58;;;;;;;23.63;8.90;;;15.10;99.90;;;;;;5015426;28;20029;-82
2021/09/02 06:15:24;;;;;;;20.23;8.25;;;15.40;99.90;;;;;;5033175;28;20106;-81
2021/09/02 06:17:49;;;;;;;33.22;9.32;;;15.30;99.90;;;;;;5033263;28;20037;-82
2021/09/02 06:20:15;;;;;;;31.50;10.10;;;15.40;99.90;;;;;;5015781;28;20013;-81
2021/09/02 06:22:40;;;;;;;24.38;8.85;;;15.60;99.90;;;;;;5033098;28;20446;-81
2021/09/02 06:25:08;;;;;;;31.27;8.77;;;15.60;99.90;;;;;;5033029;28;20033;-81
2021/09/02 06:27:34;;;;;;;18.10;8.02;;;15.60;99.90;;;;;;5015256;28;20056;-81
2021/09/02 06:30:00;;;;;;;25.25;8.50;;;15.60;99.90;;;;;;5033196;28;20028;-81
2021/09/02 06:32:25;;;;;;;31.35;10.13;;;15.70;99.90;;;;;;5015364;28;20022;-81
2021/09/02 06:37:21;;;;;;;21.92;8.93;;;15.80;99.90;;;;;;5028808;28;20042;-78
2021/09/02 06:39:46;;;;;;;32.25;10.30;;;15.90;99.90;;;;;;5032873;28;20048;-78
2021/09/02 06:42:12;;;;;;;29.80;9.60;;;16.00;99.90;;;;;;5032912;28;20051;-79
2021/09/02 06:44:38;;;;;;;26.17;8.30;;;16.10;99.90;;;;;;5014648;28;20160;-78
2021/09/02 06:47:03;;;;;;;21.15;8.32;;;16.10;99.90;;;;;;5011833;28;20034;-78
2021/09/02 06:49:29;;;;;;;22.85;8.98;;;16.20;99.90;;;;;;5013065;28;20043;-78
2021/09/02 06:51:55;;;;;;;19.30;8.88;;;16.20;99.90;;;;;;5011558;28;20037;-79
2021/09/02 06:54:21;;;;;;;31.13;10.25;;;16.20;99.90;;;;;;4995381;28;20025;-79
2021/09/02 06:56:47;;;;;;;23.63;8.15;;;16.30;99.90;;;;;;5012937;28;20398;-79
2021/09/02 06:59:12;;;;;;;22.98;9.15;;;16.30;99.90;;;;;;4995380;28;20021;-79
2021/09/02 07:01:38;;;;;;;24.77;8.70;;;16.30;99.90;;;;;;5012629;28;20127;-78
2021/09/02 07:04:03;;;;;;;35.00;9.27;;;16.20;99.90;;;;;;5012170;28;20060;-79
2021/09/02 07:06:29;;;;;;;26.00;8.57;;;16.30;99.90;;;;;;5012884;28;20540;-78
2021/09/02 07:08:55;;;;;;;23.55;9.20;;;16.40;99.90;;;;;;5012750;28;20507;-79
2021/09/02 07:11:20;;;;;;;21.42;8.27;;;16.40;99.90;;;;;;5012640;28;20038;-79
2021/09/02 07:13:46;;;;;;;18.25;8.15;;;16.50;99.90;;;;;;5012619;28;20037;-79
2021/09/02 07:16:11;;;;;;;18.63;7.70;;;16.60;99.90;;;;;;4985381;28;20139;-79
2021/09/02 07:18:37;;;;;;;27.10;9.07;;;16.60;99.90;;;;;;5008179;28;20037;-79
2021/09/02 07:21:03;;;;;;;21.77;9.35;;;16.60;99.90;;;;;;5008336;28;20022;-78
2021/09/02 07:23:28;;;;;;;24.63;8.45;;;16.70;99.90;;;;;;5008123;28;20080;-78
2021/09/02 07:25:54;;;;;;;28.77;9.15;;;16.70;99.90;;;;;;4997075;28;20120;-79
2021/09/02 07:28:20;;;;;;;27.08;9.55;;;16.70;99.90;;;;;;5012642;28;20030;-79
2021/09/02 07:30:45;;;;;;;22.60;8.80;;;16.80;99.90;;;;;;5012462;28;20044;-78
2021/09/02 07:33:11;;;;;;;41.72;13.15;;;16.80;99.90;;;;;;5012202;28;20026;-79
2021/09/02 07:35:37;;;;;;;25.92;9.27;;;16.80;99.90;;;;;;5011831;28;20033;-78
2021/09/02 07:38:03;;;;;;;25.98;8.70;;;16.90;99.90;;;;;;5012418;28;20390;-79
2021/09/02 07:40:29;;;;;;;22.30;8.50;;;17.00;99.90;;;;;;5012284;28;20025;-78
2021/09/02 07:42:54;;;;;;;21.80;8.43;;;17.00;99.90;;;;;;4994261;28;20029;-79
2021/09/02 07:45:20;;;;;;;16.95;8.10;;;16.90;99.90;;;;;;4994335;28;20076;-79
2021/09/02 07:47:46;;;;;;;28.85;9.30;;;17.10;99.90;;;;;;5003982;28;20104;-79
2021/09/02 07:50:12;;;;;;;27.58;10.52;;;17.20;99.90;;;;;;5002040;28;20027;-79
2021/09/02 07:52:38;;;;;;;27.55;9.13;;;17.10;99.90;;;;;;5000897;28;20049;-79
2021/09/02 07:55:07;;;;;;;20.60;8.50;;;17.10;99.90;;;;;;5011717;28;20036;-79
2021/09/02 07:57:32;;;;;;;22.85;9.32;;;17.10;99.90;;;;;;4994413;28;20068;-79
2021/09/02 07:59:58;;;;;;;30.55;10.25;;;17.10;99.90;;;;;;5012019;28;20053;-79
2021/09/02 08:02:23;;;;;;;33.05;10.05;;;17.30;99.90;;;;;;4994126;28;20026;-79
2021/09/02 08:04:49;;;;;;;28.23;8.57;;;17.30;99.90;;;;;;5011682;28;20547;-79
2021/09/02 08:07:14;;;;;;;16.77;7.68;;;17.40;99.90;;;;;;4994524;28;20250;-78
2021/09/02 08:09:40;;;;;;;16.73;7.68;;;17.70;99.90;;;;;;4994381;28;20497;-78
2021/09/02 08:12:06;;;;;;;27.63;8.68;;;17.60;99.90;;;;;;4994405;28;20026;-78
2021/09/02 08:14:31;;;;;;;21.48;8.30;;;17.60;99.90;;;;;;4993873;28;20033;-79
2021/09/02 08:16:57;;;;;;;18.75;7.82;;;17.80;99.90;;;;;;5013906;28;20025;-79
2021/09/02 08:19:23;;;;;;;20.40;7.13;;;18.00;99.90;;;;;;4988530;28;20032;-78
2021/09/02 08:21:48;;;;;;;23.65;8.35;;;17.90;99.90;;;;;;5011538;28;20744;-79
2021/09/02 08:24:16;;;;;;;16.30;7.93;;;18.00;99.90;;;;;;5001169;28;20824;-80
2021/09/02 08:26:41;;;;;;;21.05;8.90;;;18.10;99.90;;;;;;5010235;28;20745;-79
2021/09/02 08:29:07;;;;;;;19.83;8.18;;;18.10;99.90;;;;;;5011402;28;20112;-79
2021/09/02 08:31:33;;;;;;;21.67;8.43;;;18.10;99.90;;;;;;5002922;28;20029;-79
2021/09/02 08:33:59;;;;;;;23.13;8.82;;;18.10;99.90;;;;;;5011266;28;20037;-79
2021/09/02 08:36:25;;;;;;;27.25;9.35;;;18.10;99.90;;;;;;5011548;28;20041;-79
2021/09/02 08:38:50;;;;;;;25.38;8.30;;;17.90;99.90;;;;;;4996728;28;20508;-79
2021/09/02 08:41:17;;;;;;;31.70;9.05;;;17.90;99.90;;;;;;4997940;28;20533;-79
2021/09/02 08:43:44;;;;;;;19.85;7.43;;;17.80;99.90;;;;;;4997271;28;20029;-79
2021/09/02 08:46:10;;;;;;;22.98;8.23;;;17.90;99.90;;;;;;5015024;28;20058;-79
2021/09/02 08:48:43;;;;;;;23.63;8.20;;;17.70;99.90;;;;;;5015464;28;20128;-79
2021/09/02 08:51:09;;;;;;;30.40;9.25;;;17.70;99.90;;;;;;5015480;28;20026;-79
2021/09/02 08:53:35;;;;;;;22.35;8.43;;;17.70;99.90;;;;;;5015279;28;20038;-79
2021/09/02 08:56:00;;;;;;;24.90;8.30;;;17.90;99.90;;;;;;4997342;28;20026;-79
2021/09/02 08:58:26;;;;;;;33.08;9.10;;;17.80;99.90;;;;;;5015365;28;20029;-79
2021/09/02 09:00:52;;;;;;;23.17;8.55;;;18.00;99.90;;;;;;4997450;28;20026;-79
2021/09/02 09:03:18;;;;;;;23.63;9.02;;;18.00;99.90;;;;;;5015266;28;20025;-79
2021/09/02 09:05:51;;;;;;;28.27;9.57;;;18.10;99.90;;;;;;5014385;28;20185;-78
2021/09/02 09:08:17;;;;;;;30.83;8.93;;;18.10;99.90;;;;;;4985849;28;20077;-79
2021/09/02 09:10:43;;;;;;;20.35;7.75;;;18.20;99.90;;;;;;4996146;28;20572;-80
2021/09/02 09:13:09;;;;;;;30.23;9.65;;;18.30;99.90;;;;;;4997215;28;20084;-79
2021/09/02 09:15:38;;;;;;;24.73;10.07;;;18.30;99.90;;;;;;5014392;28;20032;-80
2021/09/02 09:18:18;;;;;;;24.65;9.48;;;18.20;99.90;;;;;;4997438;28;20018;-80
2021/09/02 09:20:45;;;;;;;24.20;8.63;;;18.00;99.90;;;;;;4997038;28;20037;-79
2021/09/02 09:23:11;;;;;;;23.35;9.50;;;18.00;99.90;;;;;;4996945;28;20050;-80
2021/09/02 09:25:36;;;;;;;34.45;10.10;;;18.10;99.90;;;;;;5014586;28;20084;-80
2021/09/02 09:28:02;;;;;;;25.33;9.90;;;18.30;99.90;;;;;;5014403;28;20032;-79
2021/09/02 09:30:34;;;;;;;24.95;9.57;;;18.20;99.90;;;;;;4996755;28;20065;-80
2021/09/02 09:33:02;;;;;;;24.48;8.63;;;18.20;99.90;;;;;;4996745;28;20433;-79
2021/09/02 09:35:34;;;;;;;20.95;8.88;;;18.10;99.90;;;;;;5014209;28;20060;-80
2021/09/02 09:38:06;;;;;;;20.75;7.97;;;17.90;99.90;;;;;;5014456;28;20494;-80
2021/09/02 09:40:36;;;;;;;27.42;9.85;;;17.80;99.90;;;;;;4996954;28;20033;-80
2021/09/02 09:43:06;;;;;;;22.45;9.20;;;17.90;99.90;;;;;;5014463;28;20394;-80
2021/09/02 09:45:46;;;;;;;27.13;9.93;;;18.10;99.90;;;;;;5001788;28;20025;-79
2021/09/02 09:48:17;;;;;;;28.95;8.27;;;18.10;99.90;;;;;;5011028;28;20486;-80
2021/09/02 09:50:44;;;;;;;25.92;9.63;;;18.10;99.90;;;;;;5011297;28;20088;-80
2021/09/02 09:53:27;;;;;;;19.05;7.80;;;18.20;99.90;;;;;;4995552;28;20120;-79
2021/09/02 09:55:53;;;;;;;29.40;9.98;;;18.40;99.90;;;;;;5010937;28;20022;-80
2021/09/02 09:58:22;;;;;;;21.20;8.43;;;18.50;99.90;;;;;;5008380;28;20438;-79
2021/09/02 10:00:49;;;;;;;26.85;9.25;;;18.60;99.90;;;;;;4999128;28;20030;-80
2021/09/02 10:03:16;;;;;;;32.92;9.70;;;18.70;99.90;;;;;;4988967;28;20022;-81
2021/09/02 10:05:41;;;;;;;20.52;8.40;;;18.80;99.90;;;;;;5008759;28;20544;-80
2021/09/02 10:08:07;;;;;;;28.40;9.90;;;19.00;99.90;;;;;;4999330;28;20120;-79
2021/09/02 10:10:33;;;;;;;19.48;9.30;;;18.80;99.90;;;;;;5005235;28;20034;-79
2021/09/02 10:13:00;;;;;;;27.85;9.77;;;18.90;99.90;;;;;;4994169;28;20054;-80
2021/09/02 10:15:26;;;;;;;25.23;9.48;;;18.70;99.90;;;;;;4999050;28;20036;-79
2021/09/02 10:17:52;;;;;;;29.77;8.82;;;18.80;99.90;;;;;;5001894;28;20018;-79
2021/09/02 10:20:23;;;;;;;26.23;9.90;;;18.90;99.90;;;;;;5009161;28;20030;-80
2021/09/02 10:22:51;;;;;;;19.63;8.32;;;19.10;99.90;;;;;;5009946;28;20025;-80
2021/09/02 10:25:38;;;;;;;37.03;10.73;;;19.10;99.90;;;;;;4998253;28;20052;-80
2021/09/02 10:28:21;;;;;;;18.17;8.20;;;19.30;99.90;;;;;;5010935;28;20057;-79
2021/09/02 10:30:51;;;;;;;;;;;19.50;99.90;;;;;;5013675;28;20064;-80
2021/09/02 10:33:31;;;;;;;29.05;12.23;;;19.70;99.90;;;;;;5013241;28;19997;-81
2021/09/02 10:35:57;;;;;;;28.13;10.40;;;19.50;99.90;;;;;;4995520;28;20100;-82
2021/09/02 10:38:39;;;;;;;29.98;8.65;;;19.50;99.90;;;;;;4995422;28;20033;-80
2021/09/02 10:41:07;;;;;;;32.13;9.98;;;19.30;99.90;;;;;;5013254;28;20037;-80
2021/09/02 10:43:55;;;;;;;31.20;8.85;;;19.60;99.90;;;;;;5013202;28;20029;-80
2021/09/02 10:46:37;;;;;;;27.67;9.00;;;19.60;99.90;;;;;;5013290;28;20030;-79
2021/09/02 10:49:15;;;;;;;20.85;9.13;;;19.80;99.90;;;;;;5013225;28;20050;-79
2021/09/02 10:51:49;;;;;;;20.48;8.65;;;19.90;99.90;;;;;;5012935;28;20064;-80
2021/09/02 10:54:18;;;;;;;15.15;8.25;;;20.20;99.90;;;;;;5012756;28;20156;-79
2021/09/02 10:57:11;;;;;;;23.70;9.60;;;21.10;99.90;;;;;;5013096;28;20022;-79
2021/09/02 10:59:36;;;;;;;23.30;9.18;;;21.60;99.90;;;;;;4992820;28;20034;-80
2021/09/02 11:02:03;;;;;;;19.55;8.65;;;21.60;99.90;;;;;;5012776;28;20033;-81
2021/09/02 11:04:29;;;;;;;25.50;8.77;;;21.80;99.90;;;;;;4994945;28;20140;-81
2021/09/02 11:06:55;;;;;;;20.65;8.15;;;22.10;99.90;;;;;;4995294;28;20100;-79
2021/09/02 11:09:35;;;;;;;29.42;9.07;;;22.10;99.90;;;;;;4995340;28;20486;-79
2021/09/02 11:12:03;;;;;;;18.50;7.82;;;22.40;99.90;;;;;;4994778;28;20053;-79
2021/09/02 11:14:29;;;;;;;15.65;7.20;;;22.60;99.90;;;;;;4994421;28;20049;-82
2021/09/02 11:16:54;;;;;;;18.40;9.05;;;23.20;99.90;;;;;;5012749;28;20061;-83
2021/09/02 11:19:35;;;;;;;24.15;8.02;;;23.40;99.90;;;;;;4995182;28;20026;-80
2021/09/02 11:22:18;;;;;;;20.55;7.90;;;23.50;99.90;;;;;;4994791;28;20030;-79
2021/09/02 11:24:46;;;;;;;18.67;7.85;;;24.20;99.90;;;;;;5012187;28;20088;-79
2021/09/02 11:27:23;;;;;;;19.90;8.02;;;24.10;99.90;;;;;;4994863;28;20030;-79
2021/09/02 11:29:49;;;;;;;19.65;8.52;;;24.20;99.90;;;;;;5012683;28;20402;-81
2021/09/02 11:32:15;;;;;;;27.55;9.07;;;24.00;99.90;;;;;;5012453;28;20033;-80
2021/09/02 11:34:41;;;;;;;27.67;8.65;;;23.90;99.90;;;;;;5011909;28;20052;-78
2021/09/02 11:37:08;;;;;;;26.35;10.15;;;23.70;99.90;;;;;;4994566;28;20038;-78
2021/09/02 11:39:36;;;;;;;20.70;8.32;;;23.60;99.90;;;;;;4994806;28;20030;-79
2021/09/02 11:42:04;;;;;;;21.08;9.13;;;23.70;99.90;;;;;;4994671;28;20561;-78
2021/09/02 11:44:32;;;;;;;28.10;7.30;;;24.30;99.90;;;;;;5011906;28;20033;-78
2021/09/02 11:46:59;;;;;;;28.58;9.55;;;24.20;99.90;;;;;;4994598;28;20060;-78
2021/09/02 11:49:25;;;;;;;25.20;9.60;;;23.60;99.90;;;;;;4994608;28;20091;-78
2021/09/02 11:51:59;;;;;;;23.30;9.35;;;23.40;99.90;;;;;;5012071;28;20482;-78
2021/09/02 11:54:25;;;;;;;25.38;8.77;;;23.60;99.90;;;;;;4994135;28;20526;-78
2021/09/02 11:56:51;;;;;;;30.40;9.95;;;24.10;99.90;;;;;;5012067;28;20435;-79
2021/09/02 11:59:18;;;;;;;23.60;9.18;;;24.10;99.90;;;;;;5012092;28;20022;-78
2021/09/02 12:01:45;;;;;;;15.93;7.90;;;24.40;99.90;;;;;;5001537;28;20014;-78
2021/09/02 12:04:22;;;;;;;24.73;8.63;;;24.90;99.90;;;;;;5007773;28;20022;-78
2021/09/02 12:06:50;;;;;;;23.45;7.80;;;25.40;99.90;;;;;;4990047;28;20022;-78
2021/09/02 12:09:19;;;;;;;16.38;7.50;;;25.10;99.90;;;;;;5007989;28;20026;-77
2021/09/02 12:11:45;;;;;;;14.77;7.07;;;24.70;99.90;;;;;;5013268;28;20424;-79
2021/09/02 12:14:19;;;;;;;18.77;8.30;;;24.20;99.90;;;;;;5007842;28;20109;-77
2021/09/02 12:17:01;;;;;;;28.50;8.45;;;24.10;99.90;;;;;;5007535;28;20022;-78
2021/09/02 12:19:28;;;;;;;16.17;6.63;;;24.20;99.90;;;;;;5007754;28;20030;-77
2021/09/02 12:22:09;;;;;;;17.98;7.30;;;24.80;99.90;;;;;;5008151;28;20053;-77
2021/09/02 12:24:35;;;;;;;24.88;8.07;;;24.90;99.90;;;;;;5007403;28;20108;-79
2021/09/02 12:27:00;;;;;;;22.85;8.30;;;24.00;99.90;;;;;;5000122;28;20114;-77
2021/09/02 12:29:26;;;;;;;20.13;8.70;;;23.40;99.90;;;;;;5007789;28;20545;-77
2021/09/02 12:31:54;;;;;;;22.95;8.90;;;22.90;99.90;;;;;;5007691;28;20557;-77
2021/09/02 12:34:30;;;;;;;25.63;8.02;;;23.60;99.90;;;;;;5000027;28;20062;-77
2021/09/02 12:37:04;;;;;;;26.00;8.38;;;24.40;99.90;;;;;;5004012;28;20180;-77